sensor_id;sensor_type;location;lat;lon;timestamp;temperature;humidity
8420;DHT22;4247;48.550;8.822;2024-03-17T00:02:06;7.30;99.90
8420;DHT22;4247;48.550;8.822;2024-03-17T00:04:33;7.30;99.90
8420;DHT22;4247;48.550;8.822;2024-03-17T00:07:00;7.30;99.90
8420;DHT22;4247;48.550;8.822;2024-03-17T00:09:27;7.20;99.90
8420;DHT22;4247;48.550;8.822;2024-03-17T00:11:53;7.20;99.90
8420;DHT22;4247;48.550;8.822;2024-03-17T00:14:21;7.10;99.90
8420;DHT22;4247;48.550;8.822;2024-03-17T00:16:47;7.00;99.90
8420;DHT22;4247;48.550;8.822;2024-03-17T00:19:14;7.00;99.90
8420;DHT22;4247;48.550;8.822;2024-03-17T00:21:40;7.00;99.90
8420;DHT22;4247;48.550;8.822;2024-03-17T00:24:08;6.90;99.90
8420;DHT22;4247;48.550;8.822;2024-03-17T00:26:35;7.00;99.90
8420;DHT22;4247;48.550;8.822;2024-03-17T00:29:01;6.90;99.90
8420;DHT22;4247;48.550;8.822;2024-03-17T00:31:28;6.90;99.90
8420;DHT22;4247;48.550;8.822;2024-03-17T00:33:57;6.90;99.90
8420;DHT22;4247;48.550;8.822;2024-03-17T00:36:23;6.80;99.90
8420;DHT22;4247;48.550;8.822;2024-03-17T00:38:50;6.80;99.90
8420;DHT22;4247;48.550;8.822;2024-03-17T00:41:18;6.70;99.90
8420;DHT22;4247;48.550;8.822;2024-03-17T00:43:46;6.70;99.90
8420;DHT22;4247;48.550;8.822;2024-03-17T00:46:12;6.70;99.90
8420;DHT22;4247;48.550;8.822;2024-03-17T00:48:39;6.70;99.90
8420;DHT22;4247;48.550;8.822;2024-03-17T00:51:05;6.80;99.90
8420;DHT22;4247;48.550;8.822;2024-03-17T00:53:31;6.80;99.90
8420;DHT22;4247;48.550;8.822;2024-03-17T00:55:57;6.90;99.90
8420;DHT22;4247;48.550;8.822;2024-03-17T00:58:27;6.90;99.90
8420;DHT22;4247;48.550;8.822;2024-03-17T01:00:54;7.00;99.90
8420;DHT22;4247;48.550;8.822;2024-03-17T01:03:20;7.10;99.90
8420;DHT22;4247;48.550;8.822;2024-03-17T01:05:47;7.10;99.90
8420;DHT22;4247;48.550;8.822;2024-03-17T01:08:14;7.20;99.90
8420;DHT22;4247;48.550;8.822;2024-03-17T01:10:41;7.30;99.90
8420;DHT22;4247;48.550;8.822;2024-03-17T01:13:07;7.30;99.90
8420;DHT22;4247;48.550;8.822;2024-03-17T01:15:36;7.40;99.90
8420;DHT22;4247;48.550;8.822;2024-03-17T01:18:02;7.40;99.90
8420;DHT22;4247;48.550;8.822;2024-03-17T01:20:29;7.40;99.90
8420;DHT22;4247;48.550;8.822;2024-03-17T01:22:55;7.50;99.90
8420;DHT22;4247;48.550;8.822;2024-03-17T01:25:22;7.50;99.90
8420;DHT22;4247;48.550;8.822;2024-03-17T01:27:48;7.50;99.90
8420;DHT22;4247;48.550;8.822;2024-03-17T01:30:14;7.50;99.90
8420;DHT22;4247;48.550;8.822;2024-03-17T01:32:42;7.50;99.90
8420;DHT22;4247;48.550;8.822;2024-03-17T01:35:08;7.40;99.90
8420;DHT22;4247;48.550;8.822;2024-03-17T01:37:34;7.50;99.90
8420;DHT22;4247;48.550;8.822;2024-03-17T01:40:01;7.50;99.90
8420;DHT22;4247;48.550;8.822;2024-03-17T01:42:27;7.50;99.90
8420;DHT22;4247;48.550;8.822;2024-03-17T01:44:54;7.50;99.90
8420;DHT22;4247;48.550;8.822;2024-03-17T01:47:20;7.40;99.90
8420;DHT22;4247;48.550;8.822;2024-03-17T01:49:49;7.40;99.90
8420;DHT22;4247;48.550;8.822;2024-03-17T01:52:15;7.40;99.90
8420;DHT22;4247;48.550;8.822;2024-03-17T01:54:43;7.40;99.90
8420;DHT22;4247;48.550;8.822;2024-03-17T01:57:09;7.30;99.90
8420;DHT22;4247;48.550;8.822;2024-03-17T01:59:36;7.40;99.90
8420;DHT22;4247;48.550;8.822;2024-03-17T02:02:03;7.30;99.90
8420;DHT22;4247;48.550;8.822;2024-03-17T02:04:30;7.30;99.90
8420;DHT22;4247;48.550;8.822;2024-03-17T02:06:57;7.30;99.90
8420;DHT22;4247;48.550;8.822;2024-03-17T02:09:24;7.40;99.90
8420;DHT22;4247;48.550;8.822;2024-03-17T02:11:51;7.40;99.90
8420;DHT22;4247;48.550;8.822;2024-03-17T02:14:17;7.40;99.90
8420;DHT22;4247;48.550;8.822;2024-03-17T02:16:43;7.50;99.90
8420;DHT22;4247;48.550;8.822;2024-03-17T02:19:10;7.50;99.90
8420;DHT22;4247;48.550;8.822;2024-03-17T02:21:35;7.50;99.90
8420;DHT22;4247;48.550;8.822;2024-03-17T02:24:05;7.50;99.90
8420;DHT22;4247;48.550;8.822;2024-03-17T02:26:33;7.50;99.90
8420;DHT22;4247;48.550;8.822;2024-03-17T02:29:00;7.60;99.90
8420;DHT22;4247;48.550;8.822;2024-03-17T02:31:26;7.60;99.90
8420;DHT22;4247;48.550;8.822;2024-03-17T02:33:53;7.60;99.90
8420;DHT22;4247;48.550;8.822;2024-03-17T02:36:19;7.60;99.90
8420;DHT22;4247;48.550;8.822;2024-03-17T02:38:45;7.70;99.90
8420;DHT22;4247;48.550;8.822;2024-03-17T02:41:31;7.70;99.90
8420;DHT22;4247;48.550;8.822;2024-03-17T02:43:57;7.80;99.90
8420;DHT22;4247;48.550;8.822;2024-03-17T02:46:24;7.80;99.90
8420;DHT22;4247;48.550;8.822;2024-03-17T02:48:53;7.80;99.90
8420;DHT22;4247;48.550;8.822;2024-03-17T02:51:21;7.80;99.90
8420;DHT22;4247;48.550;8.822;2024-03-17T02:53:49;7.90;99.90
8420;DHT22;4247;48.550;8.822;2024-03-17T02:56:16;7.90;99.90
8420;DHT22;4247;48.550;8.822;2024-03-17T02:58:45;8.00;99.90
8420;DHT22;4247;48.550;8.822;2024-03-17T03:01:13;8.00;99.90
8420;DHT22;4247;48.550;8.822;2024-03-17T03:03:40;8.00;99.90
8420;DHT22;4247;48.550;8.822;2024-03-17T03:06:07;8.00;99.90
8420;DHT22;4247;48.550;8.822;2024-03-17T03:08:37;8.00;99.90
8420;DHT22;4247;48.550;8.822;2024-03-17T03:11:06;8.00;99.90
8420;DHT22;4247;48.550;8.822;2024-03-17T03:13:36;8.00;99.90
8420;DHT22;4247;48.550;8.822;2024-03-17T03:16:05;8.00;99.90
8420;DHT22;4247;48.550;8.822;2024-03-17T03:18:32;8.00;99.90
8420;DHT22;4247;48.550;8.822;2024-03-17T03:20:59;7.90;99.90
8420;DHT22;4247;48.550;8.822;2024-03-17T03:23:25;7.90;99.90
8420;DHT22;4247;48.550;8.822;2024-03-17T03:25:55;7.90;99.90
8420;DHT22;4247;48.550;8.822;2024-03-17T03:28:22;8.00;99.90
8420;DHT22;4247;48.550;8.822;2024-03-17T03:30:49;8.00;99.90
8420;DHT22;4247;48.550;8.822;2024-03-17T03:33:18;7.90;99.90
8420;DHT22;4247;48.550;8.822;2024-03-17T03:35:45;8.00;99.90
8420;DHT22;4247;48.550;8.822;2024-03-17T03:38:12;7.90;99.90
8420;DHT22;4247;48.550;8.822;2024-03-17T03:40:39;7.90;99.90
8420;DHT22;4247;48.550;8.822;2024-03-17T03:43:05;8.00;99.90
8420;DHT22;4247;48.550;8.822;2024-03-17T03:45:33;8.00;99.90
8420;DHT22;4247;48.550;8.822;2024-03-17T03:48:00;8.00;99.90
8420;DHT22;4247;48.550;8.822;2024-03-17T03:50:29;8.00;99.90
8420;DHT22;4247;48.550;8.822;2024-03-17T03:52:57;8.00;99.90
8420;DHT22;4247;48.550;8.822;2024-03-17T03:55:23;8.00;99.90
8420;DHT22;4247;48.550;8.822;2024-03-17T03:57:50;8.00;99.90
8420;DHT22;4247;48.550;8.822;2024-03-17T04:00:18;8.00;99.90
8420;DHT22;4247;48.550;8.822;2024-03-17T04:02:47;8.00;99.90
8420;DHT22;4247;48.550;8.822;2024-03-17T04:05:14;8.00;99.90
8420;DHT22;4247;48.550;8.822;2024-03-17T04:07:42;8.00;99.90
8420;DHT22;4247;48.550;8.822;2024-03-17T04:10:11;8.00;99.90
8420;DHT22;4247;48.550;8.822;2024-03-17T04:12:38;8.00;99.90
8420;DHT22;4247;48.550;8.822;2024-03-17T04:15:06;8.00;99.90
8420;DHT22;4247;48.550;8.822;2024-03-17T04:17:35;8.00;99.90
8420;DHT22;4247;48.550;8.822;2024-03-17T04:20:03;8.00;99.90
8420;DHT22;4247;48.550;8.822;2024-03-17T04:22:30;8.00;99.90
8420;DHT22;4247;48.550;8.822;2024-03-17T04:24:58;8.00;99.90
8420;DHT22;4247;48.550;8.822;2024-03-17T04:27:25;8.10;99.90
8420;DHT22;4247;48.550;8.822;2024-03-17T04:29:53;8.10;99.90
8420;DHT22;4247;48.550;8.822;2024-03-17T04:32:20;8.10;99.90
8420;DHT22;4247;48.550;8.822;2024-03-17T04:34:47;8.10;99.90
8420;DHT22;4247;48.550;8.822;2024-03-17T04:37:14;8.10;99.90
8420;DHT22;4247;48.550;8.822;2024-03-17T04:39:41;8.10;99.90
8420;DHT22;4247;48.550;8.822;2024-03-17T04:42:10;8.10;99.90
8420;DHT22;4247;48.550;8.822;2024-03-17T04:44:37;8.10;99.90
8420;DHT22;4247;48.550;8.822;2024-03-17T04:47:05;8.20;99.90
8420;DHT22;4247;48.550;8.822;2024-03-17T04:49:34;8.20;99.90
8420;DHT22;4247;48.550;8.822;2024-03-17T04:52:01;8.20;99.90
8420;DHT22;4247;48.550;8.822;2024-03-17T04:54:28;8.20;99.90
8420;DHT22;4247;48.550;8.822;2024-03-17T04:56:55;8.20;99.90
8420;DHT22;4247;48.550;8.822;2024-03-17T04:59:23;8.10;99.90
8420;DHT22;4247;48.550;8.822;2024-03-17T05:01:49;8.10;99.90
8420;DHT22;4247;48.550;8.822;2024-03-17T05:04:17;8.10;99.90
8420;DHT22;4247;48.550;8.822;2024-03-17T05:06:44;8.20;99.90
8420;DHT22;4247;48.550;8.822;2024-03-17T05:09:11;8.10;99.90
8420;DHT22;4247;48.550;8.822;2024-03-17T05:11:39;8.10;99.90
8420;DHT22;4247;48.550;8.822;2024-03-17T05:14:06;8.10;99.90
8420;DHT22;4247;48.550;8.822;2024-03-17T05:16:34;8.10;99.90
8420;DHT22;4247;48.550;8.822;2024-03-17T05:19:01;8.10;99.90
8420;DHT22;4247;48.550;8.822;2024-03-17T05:21:29;8.20;99.90
8420;DHT22;4247;48.550;8.822;2024-03-17T05:23:56;8.20;99.90
8420;DHT22;4247;48.550;8.822;2024-03-17T05:26:24;8.20;99.90
8420;DHT22;4247;48.550;8.822;2024-03-17T05:28:51;8.20;99.90
8420;DHT22;4247;48.550;8.822;2024-03-17T05:31:18;8.20;99.90
8420;DHT22;4247;48.550;8.822;2024-03-17T05:33:48;8.20;99.90
8420;DHT22;4247;48.550;8.822;2024-03-17T05:36:15;8.20;99.90
8420;DHT22;4247;48.550;8.822;2024-03-17T05:38:45;8.20;99.90
8420;DHT22;4247;48.550;8.822;2024-03-17T05:41:12;8.20;99.90
8420;DHT22;4247;48.550;8.822;2024-03-17T05:43:39;8.20;99.90
8420;DHT22;4247;48.550;8.822;2024-03-17T05:46:11;8.10;99.90
8420;DHT22;4247;48.550;8.822;2024-03-17T05:48:39;8.10;99.90
8420;DHT22;4247;48.550;8.822;2024-03-17T05:51:08;8.20;99.90
8420;DHT22;4247;48.550;8.822;2024-03-17T05:53:36;8.20;99.90
8420;DHT22;4247;48.550;8.822;2024-03-17T05:56:03;8.20;99.90
8420;DHT22;4247;48.550;8.822;2024-03-17T05:58:29;8.20;99.90
8420;DHT22;4247;48.550;8.822;2024-03-17T06:00:56;8.20;99.90
8420;DHT22;4247;48.550;8.822;2024-03-17T06:03:23;8.20;99.90
8420;DHT22;4247;48.550;8.822;2024-03-17T06:05:50;8.20;99.90
8420;DHT22;4247;48.550;8.822;2024-03-17T06:08:18;8.30;99.90
8420;DHT22;4247;48.550;8.822;2024-03-17T06:10:46;8.30;99.90
8420;DHT22;4247;48.550;8.822;2024-03-17T06:13:13;8.30;99.90
8420;DHT22;4247;48.550;8.822;2024-03-17T06:15:43;8.30;99.90
8420;DHT22;4247;48.550;8.822;2024-03-17T06:18:12;8.30;99.90
8420;DHT22;4247;48.550;8.822;2024-03-17T06:20:40;8.30;99.90
8420;DHT22;4247;48.550;8.822;2024-03-17T06:23:09;8.30;99.90
8420;DHT22;4247;48.550;8.822;2024-03-17T06:25:40;8.40;99.90
8420;DHT22;4247;48.550;8.822;2024-03-17T06:28:07;8.40;99.90
8420;DHT22;4247;48.550;8.822;2024-03-17T06:30:33;8.40;99.90
8420;DHT22;4247;48.550;8.822;2024-03-17T06:33:01;8.50;99.90
8420;DHT22;4247;48.550;8.822;2024-03-17T06:35:28;8.50;99.90
8420;DHT22;4247;48.550;8.822;2024-03-17T06:37:59;8.50;99.90
8420;DHT22;4247;48.550;8.822;2024-03-17T06:40:26;8.60;99.90
8420;DHT22;4247;48.550;8.822;2024-03-17T06:42:54;8.50;99.90
8420;DHT22;4247;48.550;8.822;2024-03-17T06:45:21;8.60;99.90
8420;DHT22;4247;48.550;8.822;2024-03-17T06:47:48;8.70;99.90
8420;DHT22;4247;48.550;8.822;2024-03-17T06:50:15;8.70;99.90
8420;DHT22;4247;48.550;8.822;2024-03-17T06:52:42;8.70;99.90
8420;DHT22;4247;48.550;8.822;2024-03-17T06:55:08;8.80;99.90
8420;DHT22;4247;48.550;8.822;2024-03-17T06:57:36;8.80;99.90
8420;DHT22;4247;48.550;8.822;2024-03-17T07:00:06;8.80;99.90
8420;DHT22;4247;48.550;8.822;2024-03-17T07:02:39;8.90;99.90
8420;DHT22;4247;48.550;8.822;2024-03-17T07:05:07;8.90;99.90
8420;DHT22;4247;48.550;8.822;2024-03-17T07:07:34;8.90;99.90
8420;DHT22;4247;48.550;8.822;2024-03-17T07:10:00;8.90;99.90
8420;DHT22;4247;48.550;8.822;2024-03-17T07:12:30;9.00;99.90
8420;DHT22;4247;48.550;8.822;2024-03-17T07:14:57;9.10;99.90
8420;DHT22;4247;48.550;8.822;2024-03-17T07:17:25;9.10;99.90
8420;DHT22;4247;48.550;8.822;2024-03-17T07:19:51;9.10;99.90
8420;DHT22;4247;48.550;8.822;2024-03-17T07:22:18;9.20;99.90
8420;DHT22;4247;48.550;8.822;2024-03-17T07:24:45;9.20;99.90
8420;DHT22;4247;48.550;8.822;2024-03-17T07:27:12;9.30;99.90
8420;DHT22;4247;48.550;8.822;2024-03-17T07:29:40;9.50;99.90
8420;DHT22;4247;48.550;8.822;2024-03-17T07:32:06;9.50;99.90
8420;DHT22;4247;48.550;8.822;2024-03-17T07:34:35;9.60;99.90
8420;DHT22;4247;48.550;8.822;2024-03-17T07:37:01;9.70;99.90
8420;DHT22;4247;48.550;8.822;2024-03-17T07:39:28;9.70;99.90
8420;DHT22;4247;48.550;8.822;2024-03-17T07:41:57;9.90;99.90
8420;DHT22;4247;48.550;8.822;2024-03-17T07:44:25;10.00;99.90
8420;DHT22;4247;48.550;8.822;2024-03-17T07:46:51;10.00;99.90
8420;DHT22;4247;48.550;8.822;2024-03-17T07:49:20;10.00;99.90
8420;DHT22;4247;48.550;8.822;2024-03-17T07:51:48;10.10;99.90
8420;DHT22;4247;48.550;8.822;2024-03-17T07:54:15;10.20;99.90
8420;DHT22;4247;48.550;8.822;2024-03-17T07:56:41;10.30;99.90
8420;DHT22;4247;48.550;8.822;2024-03-17T07:59:08;10.30;99.90
8420;DHT22;4247;48.550;8.822;2024-03-17T08:01:37;10.30;99.90
8420;DHT22;4247;48.550;8.822;2024-03-17T08:04:04;10.40;99.90
8420;DHT22;4247;48.550;8.822;2024-03-17T08:06:31;10.30;99.90
8420;DHT22;4247;48.550;8.822;2024-03-17T08:08:59;10.40;99.90
8420;DHT22;4247;48.550;8.822;2024-03-17T08:11:26;10.40;99.90
8420;DHT22;4247;48.550;8.822;2024-03-17T08:13:53;10.40;99.90
8420;DHT22;4247;48.550;8.822;2024-03-17T08:16:20;10.40;99.90
8420;DHT22;4247;48.550;8.822;2024-03-17T08:18:47;10.40;99.90
8420;DHT22;4247;48.550;8.822;2024-03-17T08:21:14;10.50;99.90
8420;DHT22;4247;48.550;8.822;2024-03-17T08:23:40;10.60;99.90
8420;DHT22;4247;48.550;8.822;2024-03-17T08:26:09;10.60;99.90
8420;DHT22;4247;48.550;8.822;2024-03-17T08:28:36;10.80;99.90
8420;DHT22;4247;48.550;8.822;2024-03-17T08:31:04;10.80;99.90
8420;DHT22;4247;48.550;8.822;2024-03-17T08:33:31;10.90;99.90
8420;DHT22;4247;48.550;8.822;2024-03-17T08:36:01;10.90;99.90
8420;DHT22;4247;48.550;8.822;2024-03-17T08:38:30;11.00;99.90
8420;DHT22;4247;48.550;8.822;2024-03-17T08:40:58;11.00;99.90
8420;DHT22;4247;48.550;8.822;2024-03-17T08:43:29;11.00;99.90
8420;DHT22;4247;48.550;8.822;2024-03-17T08:45:57;11.10;99.90
8420;DHT22;4247;48.550;8.822;2024-03-17T08:48:25;11.10;99.90
8420;DHT22;4247;48.550;8.822;2024-03-17T08:50:52;11.20;99.90
8420;DHT22;4247;48.550;8.822;2024-03-17T08:53:18;11.20;99.90
8420;DHT22;4247;48.550;8.822;2024-03-17T08:55:45;11.30;99.90
8420;DHT22;4247;48.550;8.822;2024-03-17T08:58:12;11.40;99.90
8420;DHT22;4247;48.550;8.822;2024-03-17T09:00:40;11.40;99.90
8420;DHT22;4247;48.550;8.822;2024-03-17T09:03:08;11.50;99.90
8420;DHT22;4247;48.550;8.822;2024-03-17T09:05:36;11.60;99.90
8420;DHT22;4247;48.550;8.822;2024-03-17T09:08:03;11.60;99.90
8420;DHT22;4247;48.550;8.822;2024-03-17T09:10:30;11.60;99.90
8420;DHT22;4247;48.550;8.822;2024-03-17T09:12:56;11.60;99.90
8420;DHT22;4247;48.550;8.822;2024-03-17T09:15:23;11.70;99.90
8420;DHT22;4247;48.550;8.822;2024-03-17T09:17:51;11.70;99.90
8420;DHT22;4247;48.550;8.822;2024-03-17T09:20:18;11.80;99.90
8420;DHT22;4247;48.550;8.822;2024-03-17T09:22:44;11.70;99.90
8420;DHT22;4247;48.550;8.822;2024-03-17T09:25:11;11.80;99.90
8420;DHT22;4247;48.550;8.822;2024-03-17T09:27:40;11.80;99.90
8420;DHT22;4247;48.550;8.822;2024-03-17T09:30:07;11.90;99.90
8420;DHT22;4247;48.550;8.822;2024-03-17T09:32:35;12.00;99.90
8420;DHT22;4247;48.550;8.822;2024-03-17T09:35:03;12.10;99.90
8420;DHT22;4247;48.550;8.822;2024-03-17T09:37:31;12.10;99.90
8420;DHT22;4247;48.550;8.822;2024-03-17T09:39:58;12.10;99.90
8420;DHT22;4247;48.550;8.822;2024-03-17T09:42:26;12.10;99.90
8420;DHT22;4247;48.550;8.822;2024-03-17T09:44:54;12.20;99.90
8420;DHT22;4247;48.550;8.822;2024-03-17T09:47:23;12.20;99.90
8420;DHT22;4247;48.550;8.822;2024-03-17T09:49:52;12.20;99.90
8420;DHT22;4247;48.550;8.822;2024-03-17T09:52:21;12.30;99.90
8420;DHT22;4247;48.550;8.822;2024-03-17T09:54:59;12.30;99.90
8420;DHT22;4247;48.550;8.822;2024-03-17T09:57:26;12.40;99.90
8420;DHT22;4247;48.550;8.822;2024-03-17T09:59:54;12.40;99.90
8420;DHT22;4247;48.550;8.822;2024-03-17T10:02:22;12.40;99.90
8420;DHT22;4247;48.550;8.822;2024-03-17T10:04:49;12.50;99.90
8420;DHT22;4247;48.550;8.822;2024-03-17T10:07:15;12.50;99.90
8420;DHT22;4247;48.550;8.822;2024-03-17T10:09:43;12.50;99.90
8420;DHT22;4247;48.550;8.822;2024-03-17T10:12:27;12.50;99.90
8420;DHT22;4247;48.550;8.822;2024-03-17T10:15:00;12.50;99.90
8420;DHT22;4247;48.550;8.822;2024-03-17T10:17:31;12.50;99.90
8420;DHT22;4247;48.550;8.822;2024-03-17T10:20:19;12.50;99.90
8420;DHT22;4247;48.550;8.822;2024-03-17T10:22:59;12.60;99.90
8420;DHT22;4247;48.550;8.822;2024-03-17T10:25:28;12.60;99.90
8420;DHT22;4247;48.550;8.822;2024-03-17T10:27:55;12.60;99.90
8420;DHT22;4247;48.550;8.822;2024-03-17T10:30:22;12.70;99.90
8420;DHT22;4247;48.550;8.822;2024-03-17T10:32:55;12.80;99.90
8420;DHT22;4247;48.550;8.822;2024-03-17T10:35:27;12.80;99.90
8420;DHT22;4247;48.550;8.822;2024-03-17T10:37:56;12.90;99.90
8420;DHT22;4247;48.550;8.822;2024-03-17T10:40:25;13.00;99.90
8420;DHT22;4247;48.550;8.822;2024-03-17T10:42:54;13.00;99.90
8420;DHT22;4247;48.550;8.822;2024-03-17T10:45:21;13.20;99.90
8420;DHT22;4247;48.550;8.822;2024-03-17T10:47:49;13.20;99.90
8420;DHT22;4247;48.550;8.822;2024-03-17T10:50:18;13.30;99.90
8420;DHT22;4247;48.550;8.822;2024-03-17T10:52:46;13.40;99.90
8420;DHT22;4247;48.550;8.822;2024-03-17T10:55:21;13.40;99.90
8420;DHT22;4247;48.550;8.822;2024-03-17T10:57:50;13.40;99.90
8420;DHT22;4247;48.550;8.822;2024-03-17T11:00:19;13.50;99.90
8420;DHT22;4247;48.550;8.822;2024-03-17T11:02:48;13.60;99.90
8420;DHT22;4247;48.550;8.822;2024-03-17T11:05:18;13.70;99.90
8420;DHT22;4247;48.550;8.822;2024-03-17T11:07:47;13.80;99.90
8420;DHT22;4247;48.550;8.822;2024-03-17T11:10:16;13.90;99.90
8420;DHT22;4247;48.550;8.822;2024-03-17T11:12:44;13.80;99.90
8420;DHT22;4247;48.550;8.822;2024-03-17T11:15:39;13.90;99.90
8420;DHT22;4247;48.550;8.822;2024-03-17T11:18:37;14.10;99.90
8420;DHT22;4247;48.550;8.822;2024-03-17T11:21:06;14.10;99.90
8420;DHT22;4247;48.550;8.822;2024-03-17T11:23:40;13.90;99.90
8420;DHT22;4247;48.550;8.822;2024-03-17T11:26:08;14.00;99.90
8420;DHT22;4247;48.550;8.822;2024-03-17T11:28:46;14.10;99.90
8420;DHT22;4247;48.550;8.822;2024-03-17T11:31:33;14.10;99.90
8420;DHT22;4247;48.550;8.822;2024-03-17T11:34:01;14.00;99.90
8420;DHT22;4247;48.550;8.822;2024-03-17T11:36:38;13.90;99.90
8420;DHT22;4247;48.550;8.822;2024-03-17T11:39:05;13.90;99.90
8420;DHT22;4247;48.550;8.822;2024-03-17T11:41:37;14.00;99.90
8420;DHT22;4247;48.550;8.822;2024-03-17T11:44:23;14.10;99.90
8420;DHT22;4247;48.550;8.822;2024-03-17T11:46:53;14.20;99.90
8420;DHT22;4247;48.550;8.822;2024-03-17T11:49:20;14.20;99.90
8420;DHT22;4247;48.550;8.822;2024-03-17T11:51:48;14.30;99.90
8420;DHT22;4247;48.550;8.822;2024-03-17T11:54:15;14.40;99.90
8420;DHT22;4247;48.550;8.822;2024-03-17T11:56:45;14.40;99.90
8420;DHT22;4247;48.550;8.822;2024-03-17T11:59:11;14.50;99.90
8420;DHT22;4247;48.550;8.822;2024-03-17T12:01:39;14.60;99.90
8420;DHT22;4247;48.550;8.822;2024-03-17T12:04:07;14.60;99.90
8420;DHT22;4247;48.550;8.822;2024-03-17T12:06:34;14.70;99.90
8420;DHT22;4247;48.550;8.822;2024-03-17T12:09:10;14.70;99.90
8420;DHT22;4247;48.550;8.822;2024-03-17T12:11:37;14.80;99.90
8420;DHT22;4247;48.550;8.822;2024-03-17T12:14:15;14.70;99.90
8420;DHT22;4247;48.550;8.822;2024-03-17T12:16:49;14.80;99.90
8420;DHT22;4247;48.550;8.822;2024-03-17T12:19:17;14.80;99.90
8420;DHT22;4247;48.550;8.822;2024-03-17T12:21:44;14.80;99.90
8420;DHT22;4247;48.550;8.822;2024-03-17T12:24:16;14.80;99.90
8420;DHT22;4247;48.550;8.822;2024-03-17T12:26:43;14.80;99.90
8420;DHT22;4247;48.550;8.822;2024-03-17T12:29:37;14.80;99.90
8420;DHT22;4247;48.550;8.822;2024-03-17T12:32:11;14.80;99.70
8420;DHT22;4247;48.550;8.822;2024-03-17T12:34:40;14.80;98.70
8420;DHT22;4247;48.550;8.822;2024-03-17T12:37:08;14.80;99.50
8420;DHT22;4247;48.550;8.822;2024-03-17T12:39:34;14.90;99.90
8420;DHT22;4247;48.550;8.822;2024-03-17T12:42:05;15.00;99.90
8420;DHT22;4247;48.550;8.822;2024-03-17T12:44:35;14.90;99.50
8420;DHT22;4247;48.550;8.822;2024-03-17T12:47:04;15.00;99.90
8420;DHT22;4247;48.550;8.822;2024-03-17T12:49:31;15.00;99.40
8420;DHT22;4247;48.550;8.822;2024-03-17T12:52:01;15.10;99.90
8420;DHT22;4247;48.550;8.822;2024-03-17T12:54:28;15.10;99.90
8420;DHT22;4247;48.550;8.822;2024-03-17T12:57:05;15.00;99.90
8420;DHT22;4247;48.550;8.822;2024-03-17T12:59:49;15.20;99.60
8420;DHT22;4247;48.550;8.822;2024-03-17T13:02:33;15.20;98.90
8420;DHT22;4247;48.550;8.822;2024-03-17T13:05:20;15.20;98.30
8420;DHT22;4247;48.550;8.822;2024-03-17T13:07:50;15.20;98.70
8420;DHT22;4247;48.550;8.822;2024-03-17T13:10:18;15.30;98.10
8420;DHT22;4247;48.550;8.822;2024-03-17T13:12:45;15.20;96.70
8420;DHT22;4247;48.550;8.822;2024-03-17T13:15:13;15.10;97.00
8420;DHT22;4247;48.550;8.822;2024-03-17T13:17:40;15.20;97.90
8420;DHT22;4247;48.550;8.822;2024-03-17T13:20:10;15.20;97.00
8420;DHT22;4247;48.550;8.822;2024-03-17T13:22:38;15.20;97.30
8420;DHT22;4247;48.550;8.822;2024-03-17T13:25:08;15.20;97.40
8420;DHT22;4247;48.550;8.822;2024-03-17T13:27:39;15.20;97.10
8420;DHT22;4247;48.550;8.822;2024-03-17T13:30:06;15.30;96.70
8420;DHT22;4247;48.550;8.822;2024-03-17T13:32:34;15.40;97.20
8420;DHT22;4247;48.550;8.822;2024-03-17T13:35:04;15.40;96.10
8420;DHT22;4247;48.550;8.822;2024-03-17T13:37:31;15.40;96.40
8420;DHT22;4247;48.550;8.822;2024-03-17T13:39:58;15.40;96.60
8420;DHT22;4247;48.550;8.822;2024-03-17T13:42:29;15.40;95.90
8420;DHT22;4247;48.550;8.822;2024-03-17T13:44:55;15.40;96.60
8420;DHT22;4247;48.550;8.822;2024-03-17T13:47:22;15.40;96.80
8420;DHT22;4247;48.550;8.822;2024-03-17T13:49:49;15.40;97.40
8420;DHT22;4247;48.550;8.822;2024-03-17T13:52:16;15.40;98.10
8420;DHT22;4247;48.550;8.822;2024-03-17T13:54:43;15.40;97.40
8420;DHT22;4247;48.550;8.822;2024-03-17T13:57:12;15.40;98.10
8420;DHT22;4247;48.550;8.822;2024-03-17T13:59:40;15.30;97.50
8420;DHT22;4247;48.550;8.822;2024-03-17T14:02:11;15.30;98.10
8420;DHT22;4247;48.550;8.822;2024-03-17T14:04:38;15.30;97.50
8420;DHT22;4247;48.550;8.822;2024-03-17T14:07:05;15.30;98.50
8420;DHT22;4247;48.550;8.822;2024-03-17T14:09:32;15.30;96.30
8420;DHT22;4247;48.550;8.822;2024-03-17T14:11:58;15.30;96.90
8420;DHT22;4247;48.550;8.822;2024-03-17T14:14:25;15.40;97.90
8420;DHT22;4247;48.550;8.822;2024-03-17T14:16:53;15.30;97.50
8420;DHT22;4247;48.550;8.822;2024-03-17T14:19:20;15.40;97.60
8420;DHT22;4247;48.550;8.822;2024-03-17T14:21:47;15.40;97.00
8420;DHT22;4247;48.550;8.822;2024-03-17T14:24:13;15.30;97.30
8420;DHT22;4247;48.550;8.822;2024-03-17T14:26:40;15.10;96.80
8420;DHT22;4247;48.550;8.822;2024-03-17T14:29:07;15.10;97.30
8420;DHT22;4247;48.550;8.822;2024-03-17T14:31:33;15.00;96.60
8420;DHT22;4247;48.550;8.822;2024-03-17T14:34:03;15.00;97.30
8420;DHT22;4247;48.550;8.822;2024-03-17T14:36:31;14.90;96.80
8420;DHT22;4247;48.550;8.822;2024-03-17T14:38:58;14.90;98.00
8420;DHT22;4247;48.550;8.822;2024-03-17T14:41:27;14.80;96.60
8420;DHT22;4247;48.550;8.822;2024-03-17T14:43:54;14.80;97.90
8420;DHT22;4247;48.550;8.822;2024-03-17T14:46:21;14.80;97.60
8420;DHT22;4247;48.550;8.822;2024-03-17T14:48:47;14.80;96.90
8420;DHT22;4247;48.550;8.822;2024-03-17T14:51:17;14.80;96.10
8420;DHT22;4247;48.550;8.822;2024-03-17T14:53:44;14.80;96.00
8420;DHT22;4247;48.550;8.822;2024-03-17T14:56:15;14.80;95.60
8420;DHT22;4247;48.550;8.822;2024-03-17T14:58:42;14.70;95.20
8420;DHT22;4247;48.550;8.822;2024-03-17T15:01:09;14.70;95.40
8420;DHT22;4247;48.550;8.822;2024-03-17T15:03:37;14.70;95.60
8420;DHT22;4247;48.550;8.822;2024-03-17T15:06:09;14.70;96.30
8420;DHT22;4247;48.550;8.822;2024-03-17T15:08:37;14.70;95.80
8420;DHT22;4247;48.550;8.822;2024-03-17T15:11:03;14.60;95.00
8420;DHT22;4247;48.550;8.822;2024-03-17T15:13:30;14.50;95.30
8420;DHT22;4247;48.550;8.822;2024-03-17T15:15:57;14.50;95.50
8420;DHT22;4247;48.550;8.822;2024-03-17T15:18:24;14.40;96.30
8420;DHT22;4247;48.550;8.822;2024-03-17T15:20:52;14.40;95.40
8420;DHT22;4247;48.550;8.822;2024-03-17T15:23:20;14.40;97.10
8420;DHT22;4247;48.550;8.822;2024-03-17T15:25:48;14.40;97.00
8420;DHT22;4247;48.550;8.822;2024-03-17T15:28:15;14.30;97.50
8420;DHT22;4247;48.550;8.822;2024-03-17T15:30:41;14.20;97.50
8420;DHT22;4247;48.550;8.822;2024-03-17T15:33:08;14.20;98.30
8420;DHT22;4247;48.550;8.822;2024-03-17T15:35:35;14.10;98.30
8420;DHT22;4247;48.550;8.822;2024-03-17T15:38:02;14.00;98.50
8420;DHT22;4247;48.550;8.822;2024-03-17T15:40:29;14.00;99.10
8420;DHT22;4247;48.550;8.822;2024-03-17T15:42:57;14.00;98.70
8420;DHT22;4247;48.550;8.822;2024-03-17T15:45:24;14.00;98.70
8420;DHT22;4247;48.550;8.822;2024-03-17T15:47:52;14.00;99.00
8420;DHT22;4247;48.550;8.822;2024-03-17T15:50:19;14.00;99.10
8420;DHT22;4247;48.550;8.822;2024-03-17T15:52:46;14.00;99.60
8420;DHT22;4247;48.550;8.822;2024-03-17T15:55:13;14.00;99.90
8420;DHT22;4247;48.550;8.822;2024-03-17T15:57:42;14.00;99.90
8420;DHT22;4247;48.550;8.822;2024-03-17T16:00:11;14.00;99.90
8420;DHT22;4247;48.550;8.822;2024-03-17T16:02:39;14.00;99.90
8420;DHT22;4247;48.550;8.822;2024-03-17T16:05:07;14.00;99.90
8420;DHT22;4247;48.550;8.822;2024-03-17T16:07:37;14.00;99.90
8420;DHT22;4247;48.550;8.822;2024-03-17T16:10:04;13.90;99.90
8420;DHT22;4247;48.550;8.822;2024-03-17T16:12:32;13.90;99.90
8420;DHT22;4247;48.550;8.822;2024-03-17T16:14:59;13.90;99.90
8420;DHT22;4247;48.550;8.822;2024-03-17T16:17:28;13.80;99.90